sensor_id;sensor_type;location;lat;lon;timestamp;P1;durP1;ratioP1;P2;durP2;ratioP2
13685;SDS011;6915;48.296;8.874;2022-09-25T00:01:47;4.30;;;4.00;;
13685;SDS011;6915;48.296;8.874;2022-09-25T00:04:14;4.20;;;3.90;;
13685;SDS011;6915;48.296;8.874;2022-09-25T00:06:42;3.50;;;3.30;;
13685;SDS011;6915;48.296;8.874;2022-09-25T00:09:12;16.03;;;4.10;;
13685;SDS011;6915;48.296;8.874;2022-09-25T00:11:44;4.13;;;3.73;;
13685;SDS011;6915;48.296;8.874;2022-09-25T00:14:11;3.87;;;3.57;;
13685;SDS011;6915;48.296;8.874;2022-09-25T00:16:38;4.37;;;4.00;;
13685;SDS011;6915;48.296;8.874;2022-09-25T00:19:05;4.60;;;4.20;;
13685;SDS011;6915;48.296;8.874;2022-09-25T00:21:50;5.37;;;3.87;;
13685;SDS011;6915;48.296;8.874;2022-09-25T00:24:18;4.37;;;4.07;;
13685;SDS011;6915;48.296;8.874;2022-09-25T00:26:45;4.70;;;4.30;;
13685;SDS011;6915;48.296;8.874;2022-09-25T00:29:13;4.43;;;4.13;;
13685;SDS011;6915;48.296;8.874;2022-09-25T00:31:41;3.93;;;3.63;;
13685;SDS011;6915;48.296;8.874;2022-09-25T00:34:08;4.60;;;4.30;;
13685;SDS011;6915;48.296;8.874;2022-09-25T00:36:36;5.43;;;4.17;;
13685;SDS011;6915;48.296;8.874;2022-09-25T00:39:04;39.97;;;5.10;;
13685;SDS011;6915;48.296;8.874;2022-09-25T00:41:31;11.43;;;4.30;;
13685;SDS011;6915;48.296;8.874;2022-09-25T00:43:59;4.43;;;4.03;;
13685;SDS011;6915;48.296;8.874;2022-09-25T00:46:28;3.57;;;3.27;;
13685;SDS011;6915;48.296;8.874;2022-09-25T00:49:00;6.27;;;3.90;;
13685;SDS011;6915;48.296;8.874;2022-09-25T00:51:31;24.63;;;4.17;;
13685;SDS011;6915;48.296;8.874;2022-09-25T00:54:07;3.67;;;3.37;;
13685;SDS011;6915;48.296;8.874;2022-09-25T00:56:40;3.77;;;3.47;;
13685;SDS011;6915;48.296;8.874;2022-09-25T00:59:10;4.97;;;3.67;;
13685;SDS011;6915;48.296;8.874;2022-09-25T01:01:41;4.27;;;3.80;;
13685;SDS011;6915;48.296;8.874;2022-09-25T01:04:08;4.30;;;3.90;;
13685;SDS011;6915;48.296;8.874;2022-09-25T01:06:37;4.00;;;3.70;;
13685;SDS011;6915;48.296;8.874;2022-09-25T01:09:05;4.27;;;3.97;;
13685;SDS011;6915;48.296;8.874;2022-09-25T01:11:33;4.10;;;3.80;;
13685;SDS011;6915;48.296;8.874;2022-09-25T01:14:01;4.00;;;3.60;;
13685;SDS011;6915;48.296;8.874;2022-09-25T01:16:33;4.77;;;4.20;;
13685;SDS011;6915;48.296;8.874;2022-09-25T01:19:06;3.93;;;3.63;;
13685;SDS011;6915;48.296;8.874;2022-09-25T01:21:45;4.83;;;4.07;;
13685;SDS011;6915;48.296;8.874;2022-09-25T01:27:41;3.83;;;3.57;;
13685;SDS011;6915;48.296;8.874;2022-09-25T01:30:22;4.17;;;3.77;;
13685;SDS011;6915;48.296;8.874;2022-09-25T01:32:54;4.77;;;4.37;;
13685;SDS011;6915;48.296;8.874;2022-09-25T01:35:31;4.97;;;4.47;;
13685;SDS011;6915;48.296;8.874;2022-09-25T01:38:03;5.00;;;4.60;;
13685;SDS011;6915;48.296;8.874;2022-09-25T01:40:38;4.33;;;3.93;;
13685;SDS011;6915;48.296;8.874;2022-09-25T01:43:11;4.53;;;4.13;;
13685;SDS011;6915;48.296;8.874;2022-09-25T01:45:44;4.90;;;3.90;;
13685;SDS011;6915;48.296;8.874;2022-09-25T01:48:15;3.57;;;3.30;;
13685;SDS011;6915;48.296;8.874;2022-09-25T01:50:47;3.00;;;2.80;;
13685;SDS011;6915;48.296;8.874;2022-09-25T01:53:19;3.20;;;3.00;;
13685;SDS011;6915;48.296;8.874;2022-09-25T01:55:51;3.13;;;2.93;;
13685;SDS011;6915;48.296;8.874;2022-09-25T01:58:22;3.60;;;3.30;;
13685;SDS011;6915;48.296;8.874;2022-09-25T02:00:56;3.10;;;2.90;;
13685;SDS011;6915;48.296;8.874;2022-09-25T02:03:27;3.53;;;3.23;;
13685;SDS011;6915;48.296;8.874;2022-09-25T02:05:59;3.40;;;3.20;;
13685;SDS011;6915;48.296;8.874;2022-09-25T02:08:30;4.23;;;3.57;;
13685;SDS011;6915;48.296;8.874;2022-09-25T02:11:01;4.90;;;4.50;;
13685;SDS011;6915;48.296;8.874;2022-09-25T02:13:32;4.53;;;4.20;;
13685;SDS011;6915;48.296;8.874;2022-09-25T02:16:07;4.90;;;4.50;;
13685;SDS011;6915;48.296;8.874;2022-09-25T02:18:36;4.90;;;4.50;;
13685;SDS011;6915;48.296;8.874;2022-09-25T02:21:24;4.23;;;3.67;;
13685;SDS011;6915;48.296;8.874;2022-09-25T02:24:01;3.53;;;3.30;;
13685;SDS011;6915;48.296;8.874;2022-09-25T02:26:38;4.87;;;4.47;;
13685;SDS011;6915;48.296;8.874;2022-09-25T02:29:05;4.13;;;3.83;;
13685;SDS011;6915;48.296;8.874;2022-09-25T02:31:35;4.40;;;3.90;;
13685;SDS011;6915;48.296;8.874;2022-09-25T02:34:05;4.40;;;4.00;;
13685;SDS011;6915;48.296;8.874;2022-09-25T02:36:33;3.77;;;3.47;;
13685;SDS011;6915;48.296;8.874;2022-09-25T02:39:00;3.83;;;3.53;;
13685;SDS011;6915;48.296;8.874;2022-09-25T02:41:35;3.90;;;3.60;;
13685;SDS011;6915;48.296;8.874;2022-09-25T02:44:14;3.80;;;3.50;;
13685;SDS011;6915;48.296;8.874;2022-09-25T02:46:50;4.30;;;3.90;;
13685;SDS011;6915;48.296;8.874;2022-09-25T02:49:27;3.67;;;3.37;;
13685;SDS011;6915;48.296;8.874;2022-09-25T02:52:05;3.90;;;3.60;;
13685;SDS011;6915;48.296;8.874;2022-09-25T02:54:37;4.43;;;3.80;;
13685;SDS011;6915;48.296;8.874;2022-09-25T02:57:11;3.80;;;3.50;;
13685;SDS011;6915;48.296;8.874;2022-09-25T02:59:43;4.57;;;4.13;;
13685;SDS011;6915;48.296;8.874;2022-09-25T03:02:13;4.03;;;3.73;;
13685;SDS011;6915;48.296;8.874;2022-09-25T03:04:42;4.07;;;3.70;;
13685;SDS011;6915;48.296;8.874;2022-09-25T03:07:12;3.77;;;3.47;;
13685;SDS011;6915;48.296;8.874;2022-09-25T03:09:40;3.90;;;3.60;;
13685;SDS011;6915;48.296;8.874;2022-09-25T03:12:10;4.20;;;3.90;;
13685;SDS011;6915;48.296;8.874;2022-09-25T03:14:38;4.00;;;3.70;;
13685;SDS011;6915;48.296;8.874;2022-09-25T03:17:05;3.83;;;3.53;;
13685;SDS011;6915;48.296;8.874;2022-09-25T03:19:35;3.97;;;3.67;;
13685;SDS011;6915;48.296;8.874;2022-09-25T03:22:02;4.10;;;3.70;;
13685;SDS011;6915;48.296;8.874;2022-09-25T03:24:29;3.73;;;3.50;;
13685;SDS011;6915;48.296;8.874;2022-09-25T03:26:56;3.60;;;3.30;;
13685;SDS011;6915;48.296;8.874;2022-09-25T03:29:23;4.50;;;3.50;;
13685;SDS011;6915;48.296;8.874;2022-09-25T03:31:50;4.00;;;3.70;;
13685;SDS011;6915;48.296;8.874;2022-09-25T03:34:17;5.90;;;4.00;;
13685;SDS011;6915;48.296;8.874;2022-09-25T03:36:46;4.23;;;3.90;;
13685;SDS011;6915;48.296;8.874;2022-09-25T03:39:13;5.70;;;4.13;;
13685;SDS011;6915;48.296;8.874;2022-09-25T03:41:42;4.07;;;3.77;;
13685;SDS011;6915;48.296;8.874;2022-09-25T03:44:09;40.07;;;4.73;;
13685;SDS011;6915;48.296;8.874;2022-09-25T03:46:36;3.83;;;3.53;;
13685;SDS011;6915;48.296;8.874;2022-09-25T03:49:03;3.70;;;3.40;;
13685;SDS011;6915;48.296;8.874;2022-09-25T03:51:31;3.80;;;3.50;;
13685;SDS011;6915;48.296;8.874;2022-09-25T03:54:00;3.80;;;3.50;;
13685;SDS011;6915;48.296;8.874;2022-09-25T03:56:28;4.00;;;3.70;;
13685;SDS011;6915;48.296;8.874;2022-09-25T03:58:54;4.03;;;3.63;;
13685;SDS011;6915;48.296;8.874;2022-09-25T04:01:22;3.83;;;3.53;;
13685;SDS011;6915;48.296;8.874;2022-09-25T04:03:50;4.00;;;3.70;;
13685;SDS011;6915;48.296;8.874;2022-09-25T04:06:18;3.73;;;3.33;;
13685;SDS011;6915;48.296;8.874;2022-09-25T04:08:48;4.13;;;3.80;;
13685;SDS011;6915;48.296;8.874;2022-09-25T04:11:17;4.20;;;3.80;;
13685;SDS011;6915;48.296;8.874;2022-09-25T04:13:45;4.13;;;3.83;;
13685;SDS011;6915;48.296;8.874;2022-09-25T04:16:12;4.20;;;3.90;;
13685;SDS011;6915;48.296;8.874;2022-09-25T04:18:41;4.93;;;4.43;;
13685;SDS011;6915;48.296;8.874;2022-09-25T04:21:09;4.83;;;4.43;;
13685;SDS011;6915;48.296;8.874;2022-09-25T04:23:37;4.47;;;3.70;;
13685;SDS011;6915;48.296;8.874;2022-09-25T04:26:04;4.70;;;4.30;;
13685;SDS011;6915;48.296;8.874;2022-09-25T04:28:33;4.40;;;4.00;;
13685;SDS011;6915;48.296;8.874;2022-09-25T04:31:00;5.20;;;4.40;;
13685;SDS011;6915;48.296;8.874;2022-09-25T04:33:27;4.90;;;4.43;;
13685;SDS011;6915;48.296;8.874;2022-09-25T04:36:12;5.10;;;4.70;;
13685;SDS011;6915;48.296;8.874;2022-09-25T04:38:39;5.30;;;4.80;;
13685;SDS011;6915;48.296;8.874;2022-09-25T04:41:06;5.23;;;4.83;;
13685;SDS011;6915;48.296;8.874;2022-09-25T04:43:35;5.90;;;4.33;;
13685;SDS011;6915;48.296;8.874;2022-09-25T04:46:03;4.80;;;4.40;;
13685;SDS011;6915;48.296;8.874;2022-09-25T04:48:31;4.87;;;4.47;;
13685;SDS011;6915;48.296;8.874;2022-09-25T04:50:59;5.27;;;4.40;;
13685;SDS011;6915;48.296;8.874;2022-09-25T04:53:27;5.00;;;4.60;;
13685;SDS011;6915;48.296;8.874;2022-09-25T04:55:59;6.13;;;4.47;;
13685;SDS011;6915;48.296;8.874;2022-09-25T04:58:26;4.47;;;4.10;;
13685;SDS011;6915;48.296;8.874;2022-09-25T05:00:55;4.77;;;4.37;;
13685;SDS011;6915;48.296;8.874;2022-09-25T05:03:26;5.77;;;4.73;;
13685;SDS011;6915;48.296;8.874;2022-09-25T05:05:54;4.83;;;4.43;;
13685;SDS011;6915;48.296;8.874;2022-09-25T05:08:21;4.23;;;3.80;;
13685;SDS011;6915;48.296;8.874;2022-09-25T05:10:48;4.90;;;4.50;;
13685;SDS011;6915;48.296;8.874;2022-09-25T05:13:15;4.30;;;4.00;;
13685;SDS011;6915;48.296;8.874;2022-09-25T05:15:42;4.53;;;3.77;;
13685;SDS011;6915;48.296;8.874;2022-09-25T05:18:12;4.60;;;4.20;;
13685;SDS011;6915;48.296;8.874;2022-09-25T05:20:41;4.50;;;4.20;;
13685;SDS011;6915;48.296;8.874;2022-09-25T05:23:10;4.87;;;4.47;;
13685;SDS011;6915;48.296;8.874;2022-09-25T05:25:37;4.53;;;4.13;;
13685;SDS011;6915;48.296;8.874;2022-09-25T05:28:04;4.00;;;3.70;;
13685;SDS011;6915;48.296;8.874;2022-09-25T05:30:31;4.33;;;4.00;;
13685;SDS011;6915;48.296;8.874;2022-09-25T05:32:59;4.30;;;3.90;;
13685;SDS011;6915;48.296;8.874;2022-09-25T05:35:29;4.07;;;3.77;;
13685;SDS011;6915;48.296;8.874;2022-09-25T05:37:57;4.67;;;4.10;;
13685;SDS011;6915;48.296;8.874;2022-09-25T05:40:24;4.80;;;4.40;;
13685;SDS011;6915;48.296;8.874;2022-09-25T05:42:51;4.90;;;4.50;;
13685;SDS011;6915;48.296;8.874;2022-09-25T05:45:19;4.50;;;4.10;;
13685;SDS011;6915;48.296;8.874;2022-09-25T05:47:48;4.57;;;4.13;;
13685;SDS011;6915;48.296;8.874;2022-09-25T05:50:25;5.30;;;4.10;;
13685;SDS011;6915;48.296;8.874;2022-09-25T05:52:55;4.50;;;4.10;;
13685;SDS011;6915;48.296;8.874;2022-09-25T05:55:22;5.00;;;4.50;;
13685;SDS011;6915;48.296;8.874;2022-09-25T05:57:49;5.10;;;4.60;;
13685;SDS011;6915;48.296;8.874;2022-09-25T06:00:18;4.10;;;3.80;;
13685;SDS011;6915;48.296;8.874;2022-09-25T06:02:50;5.00;;;4.60;;
13685;SDS011;6915;48.296;8.874;2022-09-25T06:05:19;4.43;;;4.03;;
13685;SDS011;6915;48.296;8.874;2022-09-25T06:07:50;5.00;;;4.60;;
13685;SDS011;6915;48.296;8.874;2022-09-25T06:10:19;6.37;;;5.73;;
13685;SDS011;6915;48.296;8.874;2022-09-25T06:12:46;6.37;;;5.87;;
13685;SDS011;6915;48.296;8.874;2022-09-25T06:15:13;6.57;;;5.90;;
13685;SDS011;6915;48.296;8.874;2022-09-25T06:17:40;6.53;;;5.80;;
13685;SDS011;6915;48.296;8.874;2022-09-25T06:20:08;9.77;;;8.67;;
13685;SDS011;6915;48.296;8.874;2022-09-25T06:22:35;17.70;;;14.97;;
13685;SDS011;6915;48.296;8.874;2022-09-25T06:25:02;11.20;;;10.00;;
13685;SDS011;6915;48.296;8.874;2022-09-25T06:27:31;8.93;;;7.90;;
13685;SDS011;6915;48.296;8.874;2022-09-25T06:30:01;8.00;;;7.20;;
13685;SDS011;6915;48.296;8.874;2022-09-25T06:32:31;7.57;;;6.70;;
13685;SDS011;6915;48.296;8.874;2022-09-25T06:35:02;7.90;;;5.80;;
13685;SDS011;6915;48.296;8.874;2022-09-25T06:37:34;7.97;;;4.50;;
13685;SDS011;6915;48.296;8.874;2022-09-25T06:40:01;4.83;;;4.43;;
13685;SDS011;6915;48.296;8.874;2022-09-25T06:42:28;4.70;;;4.40;;
13685;SDS011;6915;48.296;8.874;2022-09-25T06:44:56;5.03;;;4.30;;
13685;SDS011;6915;48.296;8.874;2022-09-25T06:47:23;4.80;;;4.40;;
13685;SDS011;6915;48.296;8.874;2022-09-25T06:49:51;4.50;;;4.20;;
13685;SDS011;6915;48.296;8.874;2022-09-25T06:52:22;4.57;;;4.27;;
13685;SDS011;6915;48.296;8.874;2022-09-25T06:54:52;5.67;;;4.30;;
13685;SDS011;6915;48.296;8.874;2022-09-25T06:57:18;4.73;;;4.33;;
13685;SDS011;6915;48.296;8.874;2022-09-25T06:59:45;5.60;;;4.57;;
13685;SDS011;6915;48.296;8.874;2022-09-25T07:02:18;4.40;;;4.10;;
13685;SDS011;6915;48.296;8.874;2022-09-25T07:05:06;4.40;;;4.03;;
13685;SDS011;6915;48.296;8.874;2022-09-25T07:07:34;4.80;;;4.40;;
13685;SDS011;6915;48.296;8.874;2022-09-25T07:10:05;4.60;;;4.20;;
13685;SDS011;6915;48.296;8.874;2022-09-25T07:12:35;4.90;;;4.50;;
13685;SDS011;6915;48.296;8.874;2022-09-25T07:15:08;5.10;;;4.60;;
13685;SDS011;6915;48.296;8.874;2022-09-25T07:17:44;5.17;;;4.67;;
13685;SDS011;6915;48.296;8.874;2022-09-25T07:20:11;4.67;;;4.20;;
13685;SDS011;6915;48.296;8.874;2022-09-25T07:22:39;6.87;;;6.23;;
13685;SDS011;6915;48.296;8.874;2022-09-25T07:25:07;5.30;;;4.80;;
13685;SDS011;6915;48.296;8.874;2022-09-25T07:27:36;5.40;;;5.00;;
13685;SDS011;6915;48.296;8.874;2022-09-25T07:30:04;7.00;;;5.17;;
13685;SDS011;6915;48.296;8.874;2022-09-25T07:32:33;5.20;;;4.80;;
13685;SDS011;6915;48.296;8.874;2022-09-25T07:35:01;5.80;;;5.30;;
13685;SDS011;6915;48.296;8.874;2022-09-25T07:37:28;4.87;;;4.53;;
13685;SDS011;6915;48.296;8.874;2022-09-25T07:39:55;5.40;;;4.90;;
13685;SDS011;6915;48.296;8.874;2022-09-25T07:42:22;5.37;;;4.90;;
13685;SDS011;6915;48.296;8.874;2022-09-25T07:44:49;5.40;;;4.77;;
13685;SDS011;6915;48.296;8.874;2022-09-25T07:47:16;6.03;;;5.10;;
13685;SDS011;6915;48.296;8.874;2022-09-25T07:49:43;5.07;;;4.67;;
13685;SDS011;6915;48.296;8.874;2022-09-25T07:52:12;5.10;;;4.70;;
13685;SDS011;6915;48.296;8.874;2022-09-25T07:54:39;7.60;;;5.53;;
13685;SDS011;6915;48.296;8.874;2022-09-25T07:57:07;6.30;;;5.67;;
13685;SDS011;6915;48.296;8.874;2022-09-25T07:59:34;6.47;;;5.87;;
13685;SDS011;6915;48.296;8.874;2022-09-25T08:02:00;6.27;;;5.77;;
13685;SDS011;6915;48.296;8.874;2022-09-25T08:04:29;6.17;;;5.67;;
13685;SDS011;6915;48.296;8.874;2022-09-25T08:06:56;7.00;;;6.30;;
13685;SDS011;6915;48.296;8.874;2022-09-25T08:09:25;7.07;;;6.00;;
13685;SDS011;6915;48.296;8.874;2022-09-25T08:11:52;7.40;;;6.30;;
13685;SDS011;6915;48.296;8.874;2022-09-25T08:14:19;6.47;;;5.97;;
13685;SDS011;6915;48.296;8.874;2022-09-25T08:16:46;19.10;;;15.00;;
13685;SDS011;6915;48.296;8.874;2022-09-25T08:19:13;8.90;;;8.00;;
13685;SDS011;6915;48.296;8.874;2022-09-25T08:21:42;6.57;;;5.97;;
13685;SDS011;6915;48.296;8.874;2022-09-25T08:24:09;6.43;;;5.83;;
13685;SDS011;6915;48.296;8.874;2022-09-25T08:26:37;6.30;;;4.83;;
13685;SDS011;6915;48.296;8.874;2022-09-25T08:29:04;6.03;;;5.43;;
13685;SDS011;6915;48.296;8.874;2022-09-25T08:31:33;7.43;;;6.73;;
13685;SDS011;6915;48.296;8.874;2022-09-25T08:34:00;5.90;;;5.40;;
13685;SDS011;6915;48.296;8.874;2022-09-25T08:36:27;5.57;;;5.07;;
13685;SDS011;6915;48.296;8.874;2022-09-25T08:38:54;5.00;;;4.60;;
13685;SDS011;6915;48.296;8.874;2022-09-25T08:41:24;5.33;;;4.87;;
13685;SDS011;6915;48.296;8.874;2022-09-25T08:43:56;5.50;;;5.00;;
13685;SDS011;6915;48.296;8.874;2022-09-25T08:46:33;5.20;;;4.80;;
13685;SDS011;6915;48.296;8.874;2022-09-25T08:49:22;5.00;;;4.60;;
13685;SDS011;6915;48.296;8.874;2022-09-25T08:51:51;6.00;;;5.50;;
13685;SDS011;6915;48.296;8.874;2022-09-25T08:54:24;5.70;;;5.30;;
13685;SDS011;6915;48.296;8.874;2022-09-25T08:56:54;5.43;;;4.97;;
13685;SDS011;6915;48.296;8.874;2022-09-25T08:59:26;4.97;;;4.57;;
13685;SDS011;6915;48.296;8.874;2022-09-25T09:01:58;5.17;;;4.67;;
13685;SDS011;6915;48.296;8.874;2022-09-25T09:04:27;5.53;;;5.03;;
13685;SDS011;6915;48.296;8.874;2022-09-25T09:06:58;4.73;;;4.23;;
13685;SDS011;6915;48.296;8.874;2022-09-25T09:09:30;4.40;;;4.00;;
13685;SDS011;6915;48.296;8.874;2022-09-25T09:12:05;4.03;;;3.73;;
13685;SDS011;6915;48.296;8.874;2022-09-25T09:14:40;4.97;;;4.17;;
13685;SDS011;6915;48.296;8.874;2022-09-25T09:17:14;4.63;;;4.10;;
13685;SDS011;6915;48.296;8.874;2022-09-25T09:19:45;3.67;;;3.37;;
13685;SDS011;6915;48.296;8.874;2022-09-25T09:22:14;3.70;;;3.40;;
13685;SDS011;6915;48.296;8.874;2022-09-25T09:24:52;6.73;;;3.53;;
13685;SDS011;6915;48.296;8.874;2022-09-25T09:27:33;4.30;;;3.90;;
13685;SDS011;6915;48.296;8.874;2022-09-25T09:30:17;3.63;;;3.33;;
13685;SDS011;6915;48.296;8.874;2022-09-25T09:33:00;4.20;;;3.57;;
13685;SDS011;6915;48.296;8.874;2022-09-25T09:35:45;4.20;;;3.63;;
13685;SDS011;6915;48.296;8.874;2022-09-25T09:38:20;4.17;;;3.77;;
13685;SDS011;6915;48.296;8.874;2022-09-25T09:41:04;4.37;;;3.97;;
13685;SDS011;6915;48.296;8.874;2022-09-25T09:43:45;4.30;;;3.90;;
13685;SDS011;6915;48.296;8.874;2022-09-25T09:46:22;4.57;;;3.73;;
13685;SDS011;6915;48.296;8.874;2022-09-25T09:49:00;3.57;;;3.27;;
13685;SDS011;6915;48.296;8.874;2022-09-25T09:51:35;4.37;;;3.97;;
13685;SDS011;6915;48.296;8.874;2022-09-25T09:54:07;4.77;;;3.67;;
13685;SDS011;6915;48.296;8.874;2022-09-25T09:56:38;3.97;;;3.63;;
13685;SDS011;6915;48.296;8.874;2022-09-25T09:59:11;4.93;;;4.20;;
13685;SDS011;6915;48.296;8.874;2022-09-25T10:01:44;5.43;;;4.10;;
13685;SDS011;6915;48.296;8.874;2022-09-25T10:04:25;7.00;;;4.10;;
13685;SDS011;6915;48.296;8.874;2022-09-25T10:06:58;4.00;;;3.70;;
13685;SDS011;6915;48.296;8.874;2022-09-25T10:09:28;5.43;;;4.57;;
13685;SDS011;6915;48.296;8.874;2022-09-25T10:11:58;5.30;;;3.90;;
13685;SDS011;6915;48.296;8.874;2022-09-25T10:14:28;5.77;;;4.20;;
13685;SDS011;6915;48.296;8.874;2022-09-25T10:17:00;4.50;;;4.10;;
13685;SDS011;6915;48.296;8.874;2022-09-25T10:19:28;4.30;;;4.00;;
13685;SDS011;6915;48.296;8.874;2022-09-25T10:22:02;4.77;;;4.37;;
13685;SDS011;6915;48.296;8.874;2022-09-25T10:24:46;7.83;;;5.23;;
13685;SDS011;6915;48.296;8.874;2022-09-25T10:27:19;6.07;;;5.13;;
13685;SDS011;6915;48.296;8.874;2022-09-25T10:30:16;8.33;;;5.10;;
13685;SDS011;6915;48.296;8.874;2022-09-25T10:32:54;5.70;;;4.67;;
13685;SDS011;6915;48.296;8.874;2022-09-25T10:35:23;5.70;;;4.70;;
13685;SDS011;6915;48.296;8.874;2022-09-25T10:37:53;6.23;;;5.23;;
13685;SDS011;6915;48.296;8.874;2022-09-25T10:40:28;6.03;;;4.77;;
13685;SDS011;6915;48.296;8.874;2022-09-25T10:43:02;6.07;;;4.47;;
13685;SDS011;6915;48.296;8.874;2022-09-25T10:45:31;4.93;;;4.20;;
13685;SDS011;6915;48.296;8.874;2022-09-25T10:48:07;5.20;;;4.80;;
13685;SDS011;6915;48.296;8.874;2022-09-25T10:51:10;5.73;;;4.53;;
13685;SDS011;6915;48.296;8.874;2022-09-25T10:53:41;6.87;;;4.87;;
13685;SDS011;6915;48.296;8.874;2022-09-25T10:56:09;5.03;;;4.37;;
13685;SDS011;6915;48.296;8.874;2022-09-25T10:58:40;4.83;;;4.30;;
13685;SDS011;6915;48.296;8.874;2022-09-25T11:01:09;5.33;;;4.33;;
13685;SDS011;6915;48.296;8.874;2022-09-25T11:03:44;5.07;;;4.57;;
13685;SDS011;6915;48.296;8.874;2022-09-25T11:06:16;7.10;;;4.20;;
13685;SDS011;6915;48.296;8.874;2022-09-25T11:08:46;5.03;;;3.87;;
13685;SDS011;6915;48.296;8.874;2022-09-25T11:11:21;4.37;;;4.00;;
13685;SDS011;6915;48.296;8.874;2022-09-25T11:13:51;5.30;;;4.80;;
13685;SDS011;6915;48.296;8.874;2022-09-25T11:16:22;8.20;;;5.07;;
13685;SDS011;6915;48.296;8.874;2022-09-25T11:19:13;6.20;;;5.03;;
13685;SDS011;6915;48.296;8.874;2022-09-25T11:21:45;5.20;;;4.70;;
13685;SDS011;6915;48.296;8.874;2022-09-25T11:24:19;6.10;;;5.43;;
13685;SDS011;6915;48.296;8.874;2022-09-25T11:26:53;10.83;;;8.80;;
13685;SDS011;6915;48.296;8.874;2022-09-25T11:29:27;7.60;;;5.70;;
13685;SDS011;6915;48.296;8.874;2022-09-25T11:32:03;6.20;;;5.40;;
13685;SDS011;6915;48.296;8.874;2022-09-25T11:34:53;5.93;;;5.33;;
13685;SDS011;6915;48.296;8.874;2022-09-25T11:37:30;6.23;;;5.50;;
13685;SDS011;6915;48.296;8.874;2022-09-25T11:40:04;6.70;;;6.00;;
13685;SDS011;6915;48.296;8.874;2022-09-25T11:43:03;6.63;;;6.03;;
13685;SDS011;6915;48.296;8.874;2022-09-25T11:45:38;6.73;;;6.00;;
13685;SDS011;6915;48.296;8.874;2022-09-25T11:48:13;6.90;;;5.83;;
13685;SDS011;6915;48.296;8.874;2022-09-25T11:50:51;6.10;;;5.50;;
13685;SDS011;6915;48.296;8.874;2022-09-25T11:53:27;6.37;;;5.77;;
13685;SDS011;6915;48.296;8.874;2022-09-25T11:56:08;6.13;;;5.63;;
13685;SDS011;6915;48.296;8.874;2022-09-25T11:58:59;6.50;;;5.80;;
13685;SDS011;6915;48.296;8.874;2022-09-25T12:01:38;6.53;;;5.33;;
13685;SDS011;6915;48.296;8.874;2022-09-25T12:10:20;7.07;;;5.63;;
13685;SDS011;6915;48.296;8.874;2022-09-25T12:12:54;5.97;;;5.17;;
13685;SDS011;6915;48.296;8.874;2022-09-25T12:15:41;7.17;;;5.20;;
13685;SDS011;6915;48.296;8.874;2022-09-25T12:18:18;5.90;;;5.30;;
13685;SDS011;6915;48.296;8.874;2022-09-25T12:20:55;7.90;;;5.60;;
13685;SDS011;6915;48.296;8.874;2022-09-25T12:23:30;7.47;;;5.23;;
13685;SDS011;6915;48.296;8.874;2022-09-25T12:26:01;7.03;;;4.90;;
13685;SDS011;6915;48.296;8.874;2022-09-25T12:28:39;5.53;;;5.00;;
13685;SDS011;6915;48.296;8.874;2022-09-25T12:31:19;6.37;;;4.97;;
13685;SDS011;6915;48.296;8.874;2022-09-25T12:33:58;8.17;;;4.77;;
13685;SDS011;6915;48.296;8.874;2022-09-25T12:36:35;5.50;;;5.00;;
13685;SDS011;6915;48.296;8.874;2022-09-25T12:39:14;6.43;;;5.20;;
13685;SDS011;6915;48.296;8.874;2022-09-25T12:41:52;5.97;;;5.00;;
13685;SDS011;6915;48.296;8.874;2022-09-25T12:44:33;5.17;;;4.60;;
13685;SDS011;6915;48.296;8.874;2022-09-25T12:47:08;6.20;;;4.70;;
13685;SDS011;6915;48.296;8.874;2022-09-25T12:49:40;7.10;;;5.27;;
13685;SDS011;6915;48.296;8.874;2022-09-25T12:52:11;6.50;;;5.37;;
13685;SDS011;6915;48.296;8.874;2022-09-25T12:54:45;5.47;;;4.97;;
13685;SDS011;6915;48.296;8.874;2022-09-25T12:57:17;5.20;;;4.70;;
13685;SDS011;6915;48.296;8.874;2022-09-25T12:59:51;5.40;;;4.90;;
13685;SDS011;6915;48.296;8.874;2022-09-25T13:02:24;5.00;;;4.50;;
13685;SDS011;6915;48.296;8.874;2022-09-25T13:04:55;5.20;;;4.70;;
13685;SDS011;6915;48.296;8.874;2022-09-25T13:07:31;4.80;;;4.33;;
13685;SDS011;6915;48.296;8.874;2022-09-25T13:10:06;5.10;;;4.60;;
13685;SDS011;6915;48.296;8.874;2022-09-25T13:12:45;4.90;;;4.50;;
13685;SDS011;6915;48.296;8.874;2022-09-25T13:15:14;5.10;;;4.60;;
13685;SDS011;6915;48.296;8.874;2022-09-25T13:17:45;5.40;;;4.33;;
13685;SDS011;6915;48.296;8.874;2022-09-25T13:23:25;5.93;;;4.60;;
13685;SDS011;6915;48.296;8.874;2022-09-25T13:25:59;4.63;;;4.23;;
13685;SDS011;6915;48.296;8.874;2022-09-25T13:28:35;4.67;;;4.27;;
13685;SDS011;6915;48.296;8.874;2022-09-25T13:31:06;5.00;;;4.50;;
13685;SDS011;6915;48.296;8.874;2022-09-25T13:33:41;7.33;;;5.30;;
13685;SDS011;6915;48.296;8.874;2022-09-25T13:36:26;6.93;;;4.83;;
13685;SDS011;6915;48.296;8.874;2022-09-25T13:38:58;7.13;;;5.30;;
13685;SDS011;6915;48.296;8.874;2022-09-25T13:41:52;5.00;;;4.50;;
13685;SDS011;6915;48.296;8.874;2022-09-25T13:44:37;5.13;;;4.57;;
13685;SDS011;6915;48.296;8.874;2022-09-25T13:53:11;5.93;;;4.33;;
13685;SDS011;6915;48.296;8.874;2022-09-25T14:01:47;5.53;;;4.47;;
13685;SDS011;6915;48.296;8.874;2022-09-25T14:04:18;5.97;;;5.00;;
13685;SDS011;6915;48.296;8.874;2022-09-25T14:06:51;6.97;;;5.10;;
13685;SDS011;6915;48.296;8.874;2022-09-25T14:09:21;5.57;;;5.00;;
13685;SDS011;6915;48.296;8.874;2022-09-25T14:11:51;6.43;;;4.87;;
13685;SDS011;6915;48.296;8.874;2022-09-25T14:14:31;5.80;;;5.30;;
13685;SDS011;6915;48.296;8.874;2022-09-25T14:17:01;5.50;;;5.00;;
13685;SDS011;6915;48.296;8.874;2022-09-25T14:19:31;5.60;;;5.00;;
13685;SDS011;6915;48.296;8.874;2022-09-25T14:22:02;6.07;;;4.67;;
13685;SDS011;6915;48.296;8.874;2022-09-25T14:24:30;5.50;;;5.03;;
13685;SDS011;6915;48.296;8.874;2022-09-25T14:27:00;6.73;;;4.93;;
13685;SDS011;6915;48.296;8.874;2022-09-25T14:29:31;6.87;;;5.20;;
13685;SDS011;6915;48.296;8.874;2022-09-25T14:32:10;6.07;;;5.50;;
13685;SDS011;6915;48.296;8.874;2022-09-25T14:34:54;8.13;;;5.60;;
13685;SDS011;6915;48.296;8.874;2022-09-25T14:37:34;6.63;;;5.30;;
13685;SDS011;6915;48.296;8.874;2022-09-25T14:40:15;7.07;;;5.97;;
13685;SDS011;6915;48.296;8.874;2022-09-25T14:42:56;6.27;;;5.57;;
13685;SDS011;6915;48.296;8.874;2022-09-25T14:48:24;6.73;;;5.77;;
13685;SDS011;6915;48.296;8.874;2022-09-25T14:50:58;7.57;;;5.90;;
13685;SDS011;6915;48.296;8.874;2022-09-25T14:53:29;6.80;;;6.20;;
13685;SDS011;6915;48.296;8.874;2022-09-25T14:55:58;6.90;;;6.10;;
13685;SDS011;6915;48.296;8.874;2022-09-25T14:58:28;6.37;;;5.83;;
13685;SDS011;6915;48.296;8.874;2022-09-25T15:01:00;7.37;;;5.97;;
13685;SDS011;6915;48.296;8.874;2022-09-25T15:03:40;8.40;;;6.10;;
13685;SDS011;6915;48.296;8.874;2022-09-25T15:06:10;10.70;;;6.60;;
13685;SDS011;6915;48.296;8.874;2022-09-25T15:08:38;8.10;;;7.30;;
13685;SDS011;6915;48.296;8.874;2022-09-25T15:11:10;7.57;;;6.87;;
13685;SDS011;6915;48.296;8.874;2022-09-25T15:13:38;7.83;;;6.77;;
13685;SDS011;6915;48.296;8.874;2022-09-25T15:16:10;8.03;;;7.20;;
13685;SDS011;6915;48.296;8.874;2022-09-25T15:18:58;7.70;;;6.70;;
13685;SDS011;6915;48.296;8.874;2022-09-25T15:21:26;8.67;;;6.70;;
13685;SDS011;6915;48.296;8.874;2022-09-25T15:23:56;6.57;;;5.97;;
13685;SDS011;6915;48.296;8.874;2022-09-25T15:26:26;8.00;;;6.13;;
13685;SDS011;6915;48.296;8.874;2022-09-25T15:28:54;6.17;;;5.57;;
13685;SDS011;6915;48.296;8.874;2022-09-25T15:31:23;6.23;;;5.60;;
13685;SDS011;6915;48.296;8.874;2022-09-25T15:34:00;7.00;;;5.80;;
13685;SDS011;6915;48.296;8.874;2022-09-25T15:36:29;5.73;;;5.23;;
13685;SDS011;6915;48.296;8.874;2022-09-25T15:38:57;7.63;;;5.67;;
13685;SDS011;6915;48.296;8.874;2022-09-25T15:41:25;7.00;;;6.10;;
13685;SDS011;6915;48.296;8.874;2022-09-25T15:44:02;7.20;;;5.87;;
13685;SDS011;6915;48.296;8.874;2022-09-25T15:46:45;7.83;;;5.77;;
13685;SDS011;6915;48.296;8.874;2022-09-25T15:49:15;5.87;;;5.37;;
13685;SDS011;6915;48.296;8.874;2022-09-25T15:51:49;5.30;;;4.90;;
13685;SDS011;6915;48.296;8.874;2022-09-25T15:54:27;4.43;;;4.03;;
13685;SDS011;6915;48.296;8.874;2022-09-25T15:57:00;4.97;;;4.40;;